Flight Track Log - Related Links

Times and Time Zones

All times are in EDT time to prevent confusion due to time zone crossing. See the SWA496 flight status page for this flight to view local times or setup timezone preferences in your user account.

Time Position Orientation Groundspeed Altitude Reporting Facility
EDT Latitude Longitude Course Direction KTS MPH feet Rate Location/Type
Fri 06:54:39 PM 39.1667 -76.7333 122° Southeast 174 200 2,000  Level Potomac TRACON
Fri 06:56:32 PM 39.1297 -76.6564 122° Southeast 184 212 6,500 2,491 Climbing Washington Center
Fri 06:57:30 PM 39.1325 -76.5522 88° East 224 258 9,100 2,622 Climbing Washington Center
Fri 06:58:31 PM 39.1397 -76.4425 85° East 268 308 11,700 2,705 Climbing Washington Center
Fri 06:59:32 PM 39.1467 -76.3142 86° East 317 365 14,600 2,622 Climbing Washington Center
Fri 07:00:30 PM 39.1558 -76.1697 85° East 357 411 16,900 2,150 Climbing Washington Center
Fri 07:01:32 PM 39.1753 -76.0306 80° East 413 475 18,900 2,150 Climbing Washington Center
Fri 07:02:30 PM 39.2319 -75.8944 62° Northeast 425 489 21,200 2,218 Climbing Washington Center
Fri 07:03:31 PM 39.3197 -75.7686 48° Northeast 438 504 23,300 1,869 Climbing Washington Center
Fri 07:04:32 PM 39.4114 -75.6372 48° Northeast 460 529 25,000 1,835 Climbing Washington Center
Fri 07:05:32 PM 39.5011 -75.5028 49° Northeast 479 551 27,000 2,034 Climbing Washington Center
Fri 07:06:30 PM 39.5903 -75.3733 48° Northeast 484 557 29,000 1,943 Climbing Washington Center
Fri 07:09:02 PM 39.8236 -75.0389 48° Northeast 496 571 33,800 1,771 Climbing New York Center
Fri 07:10:00 PM 39.9181 -74.9064 47° Northeast 496 571 35,200 1,261 Climbing New York Center
Fri 07:11:01 PM 40.0233 -74.7583 47° Northeast 496 571 36,300 1,328 Climbing New York Center
Fri 07:12:02 PM 40.1486 -74.6867 24° Northeast 485 558 37,900 1,361 Climbing New York Center
Fri 07:13:00 PM 40.2644 -74.6469 15° North 467 537 39,000 555 Climbing New York Center
Fri 07:14:01 PM 40.3911 -74.6022 15° North 467 537 39,000  Level New York Center
Fri 07:15:36 PM 40.5944 -74.5378 14° North 477 549 39,000  Level Boston Center
Fri 07:16:37 PM 40.7222 -74.4956 14° North 476 548 39,000  Level Boston Center
Fri 07:17:39 PM 40.8542 -74.4525 14° North 483 556 39,000  Level Boston Center
Fri 07:18:40 PM 41.0114 -74.4014 14° North 485 558 39,000  Level Boston Center
Fri 07:19:42 PM 41.1303 -74.3600 15° North 486 559 39,000  Level Boston Center
Fri 07:20:44 PM 41.2619 -74.3164 14° North 486 559 39,000  Level Boston Center
Fri 07:21:45 PM 41.3931 -74.2717 14° North 486 559 39,000 -195 Level Boston Center
Fri 07:22:47 PM 41.5503 -74.2186 14° North 486 559 38,600 -878 Descending Boston Center
Fri 07:23:48 PM 41.6758 -74.1736 15° North 472 543 37,200 -1,659 Descending Boston Center
Fri 07:24:50 PM 41.8003 -74.1319 14° North 465 535 35,200 -1,790 Descending Boston Center
Fri 07:25:52 PM 41.9106 -74.0939 14° North 459 528 33,500 -1,854 Descending Boston Center
Fri 07:26:53 PM 42.0286 -74.0425 18° North 454 522 31,400 -2,439 Descending Boston Center
Fri 07:27:55 PM 42.1142 -73.8747 55° Northeast 461 531 28,500 -2,585 Descending Boston Center
Fri 07:28:56 PM 42.1792 -73.7283 59° Northeast 459 528 26,100 -2,098 Descending Boston Center
Fri 07:29:58 PM 42.2344 -73.6019 59° Northeast 442 509 24,200 -1,463 Descending Boston Center
Fri 07:30:59 PM 42.2922 -73.4692 60° Northeast 419 482 23,100 -1,073 Descending Boston Center
Fri 07:32:01 PM 42.3564 -73.3222 59° Northeast 416 479 22,000 -1,024 Descending Boston Center
Fri 07:33:02 PM 42.4136 -73.1897 60° Northeast 412 474 21,000 -976 Descending Boston Center
Fri 07:34:04 PM 42.4703 -73.0586 60° Northeast 407 468 20,000 -968 Descending Boston Center
Fri 07:35:06 PM 42.5336 -72.9081 60° Northeast 398 458 19,000 -488 Descending Boston Center
Fri 07:36:07 PM 42.5872 -72.7822 60° Northeast 390 449 19,000  Level Boston Center
Fri 07:37:09 PM 42.6361 -72.6681 60° Northeast 390 449 19,000 -732 Level Boston Center
Fri 07:38:10 PM 42.6889 -72.5431 60° Northeast 386 444 17,500 -1,902 Descending Boston Center
Fri 07:39:12 PM 42.7497 -72.3986 60° Northeast 372 428 15,100 -2,146 Descending Boston Center
Fri 07:40:13 PM 42.7956 -72.2822 62° Northeast 356 410 13,100 -1,902 Descending Boston Center
Fri 07:41:15 PM 42.8056 -72.1467 84° East 352 405 11,200 -1,561 Descending Boston Center
Fri 07:42:16 PM 42.8167 -72.0153 83° East 324 373 9,900 -1,366 Descending Boston Center
Fri 07:43:18 PM 42.8264 -71.9058 83° East 296 341 8,400 -1,659 Descending Boston Center
Fri 07:44:19 PM 42.8272 -71.7992 89° East 286 329 6,500 -1,426 Descending Boston Center
Fri 07:45:20 PM 42.8161 -71.6856 98° East 285 328 5,500 -1,122 Descending Boston Center
Fri 07:46:22 PM 42.8069 -71.5811 97° East 284 327 4,200 -976 Descending Boston Center
Fri 07:47:23 PM 42.7983 -71.4842 97° East 261 300 3,500 -732 Descending Boston Center
Fri 07:48:25 PM 42.8194 -71.4008 71° East 222 255 2,700 -976 Descending Boston Center
Fri 07:49:26 PM 42.8625 -71.3914 North 168 193 1,500 -934 Descending Boston Center
Fri 07:50:27 PM 42.8961 -71.4117 336° Northwest 134 154 800 -585 Descending Boston Center
Fri 07:51:29 PM 42.9283 -71.4300 337° Northwest 133 153 300 -484 Descending Boston Center
Fri 07:53:00 PM 42.9167 -71.4333 316° Northwest  Level FlightAware Approximate

Login

Don't have an account? Register now (free) for customized features, flight alerts, and more!